Time;durP1;ratioP1;P1;durP2;ratioP2;P2;SDS_P1;SDS_P2;PMS_P1;PMS_P2;Temp;Humidity;BMP_temperature;BMP_pressure;BME280_temperature;BME280_humidity;BME280_pressure;Samples;Min_cycle;Max_cycle;Signal;HPM_P1;HPM_P2
2023/11/29 00:00:08;;;;;;;12.47;8.70;;;10.00;54.10;;;;;;5001478;28;20493;-84
2023/11/29 00:02:37;;;;;;;13.83;9.50;;;10.00;54.80;;;;;;4993265;28;20499;-84
2023/11/29 00:05:10;;;;;;;14.17;9.30;;;10.00;54.90;;;;;;4997583;28;20468;-82
2023/11/29 00:07:44;;;;;;;13.80;9.27;;;10.00;54.80;;;;;;4993708;28;20545;-81
2023/11/29 00:10:13;;;;;;;12.60;8.87;;;10.20;55.30;;;;;;4998716;28;20448;-81
2023/11/29 00:12:42;;;;;;;14.83;10.00;;;10.10;54.50;;;;;;5003355;28;20442;-79
2023/11/29 00:15:11;;;;;;;13.13;9.07;;;10.00;54.30;;;;;;4998498;28;20465;-81
2023/11/29 00:17:39;;;;;;;14.67;9.50;;;10.10;55.00;;;;;;5010667;28;20449;-81
2023/11/29 00:20:07;;;;;;;17.33;9.27;;;10.00;54.90;;;;;;5002242;28;20467;-81
2023/11/29 00:22:36;;;;;;;13.50;9.97;;;10.00;54.80;;;;;;5000064;28;20537;-81
2023/11/29 00:25:04;;;;;;;16.33;10.13;;;10.00;54.90;;;;;;5002781;28;20465;-81
2023/11/29 00:27:34;;;;;;;16.70;9.90;;;10.00;54.80;;;;;;5001431;28;20450;-78
2023/11/29 00:30:04;;;;;;;12.60;9.40;;;10.00;55.00;;;;;;4999238;28;20503;-81
2023/11/29 00:32:32;;;;;;;14.20;9.60;;;10.20;55.70;;;;;;4990865;28;20487;-84
2023/11/29 00:35:00;;;;;;;14.97;9.93;;;10.20;55.00;;;;;;5007989;28;20469;-83
2023/11/29 00:37:29;;;;;;;13.77;9.40;;;10.20;55.10;;;;;;4999882;28;20457;-83
2023/11/29 00:39:57;;;;;;;18.33;10.60;;;10.20;55.10;;;;;;4992236;28;20460;-82
2023/11/29 00:42:24;;;;;;;13.27;9.70;;;10.10;54.60;;;;;;5007787;28;20554;-83
2023/11/29 00:44:53;;;;;;;13.13;10.33;;;10.10;54.70;;;;;;4998199;28;20523;-83
2023/11/29 00:47:22;;;;;;;13.70;9.77;;;10.10;54.70;;;;;;4999429;28;20425;-83
2023/11/29 00:49:50;;;;;;;15.20;9.70;;;9.90;55.60;;;;;;4992395;28;20456;-83
2023/11/29 00:52:18;;;;;;;13.10;9.07;;;9.90;56.30;;;;;;4996330;28;20464;-83
2023/11/29 00:54:46;;;;;;;14.23;9.20;;;9.90;56.10;;;;;;4988053;28;20497;-82
2023/11/29 00:57:14;;;;;;;14.53;9.87;;;9.90;56.10;;;;;;4995660;28;20495;-83
2023/11/29 00:59:42;;;;;;;13.47;9.43;;;10.00;55.90;;;;;;5002455;28;20963;-82
2023/11/29 01:02:10;;;;;;;14.70;9.13;;;10.00;55.00;;;;;;4997578;28;20473;-82
2023/11/29 01:04:40;;;;;;;12.50;9.03;;;10.10;54.80;;;;;;5000636;28;20504;-83
2023/11/29 01:07:09;;;;;;;12.73;8.60;;;10.10;54.90;;;;;;4998170;28;20504;-83
2023/11/29 01:09:37;;;;;;;12.60;9.40;;;10.10;55.10;;;;;;4997957;28;20476;-83
2023/11/29 01:12:05;;;;;;;15.60;8.90;;;10.10;55.00;;;;;;4996597;28;20445;-82
2023/11/29 01:14:33;;;;;;;16.77;9.27;;;10.10;54.60;;;;;;4999463;28;20468;-82
2023/11/29 01:17:01;;;;;;;12.60;8.87;;;10.00;55.10;;;;;;4992398;28;20464;-82
2023/11/29 01:19:29;;;;;;;10.80;8.40;;;10.00;55.10;;;;;;4996473;28;20484;-82
2023/11/29 01:21:59;;;;;;;11.83;8.40;;;10.00;54.90;;;;;;5006645;28;20480;-83
2023/11/29 01:24:27;;;;;;;11.17;8.23;;;10.10;54.90;;;;;;4994967;28;20473;-82
2023/11/29 01:26:55;;;;;;;12.17;8.70;;;10.20;54.70;;;;;;5001158;28;20441;-82
2023/11/29 01:29:22;;;;;;;11.23;8.10;;;10.10;55.30;;;;;;4993622;28;20449;-82
2023/11/29 01:31:50;;;;;;;10.47;8.00;;;10.00;55.20;;;;;;5005388;28;20449;-82
2023/11/29 01:34:19;;;;;;;10.00;8.47;;;10.00;55.00;;;;;;5004314;28;20952;-82
2023/11/29 01:36:47;;;;;;;9.37;7.50;;;10.00;55.10;;;;;;5004934;28;20460;-82
2023/11/29 01:39:16;;;;;;;11.10;8.00;;;10.00;55.20;;;;;;5012102;28;20449;-82
2023/11/29 01:41:44;;;;;;;10.80;8.40;;;10.00;55.50;;;;;;4993415;28;20500;-81
2023/11/29 01:44:12;;;;;;;10.60;8.03;;;9.90;56.70;;;;;;4993961;28;20555;-82
2023/11/29 01:46:40;;;;;;;11.07;7.90;;;10.00;55.80;;;;;;5003373;28;20447;-82
2023/11/29 01:49:09;;;;;;;9.73;7.63;;;10.00;55.80;;;;;;5004674;28;20442;-83
2023/11/29 01:51:37;;;;;;;8.83;7.70;;;9.90;56.70;;;;;;4996789;28;20461;-82
2023/11/29 01:54:05;;;;;;;10.43;6.77;;;10.00;55.60;;;;;;4991481;28;20528;-82
2023/11/29 01:56:36;;;;;;;9.87;7.50;;;10.10;55.80;;;;;;5006000;28;20450;-83
2023/11/29 01:59:04;;;;;;;10.90;7.73;;;10.00;55.60;;;;;;5002141;28;20456;-81
2023/11/29 02:01:32;;;;;;;7.83;7.03;;;10.00;55.50;;;;;;5003119;28;20444;-82
2023/11/29 02:04:00;;;;;;;8.70;6.63;;;9.90;57.00;;;;;;4998060;28;20469;-82
2023/11/29 02:06:28;;;;;;;7.50;6.70;;;9.80;57.00;;;;;;5002224;28;20479;-81
2023/11/29 02:08:56;;;;;;;10.93;7.37;;;9.70;56.80;;;;;;4998400;28;20445;-82
2023/11/29 02:11:24;;;;;;;7.30;6.60;;;9.60;57.40;;;;;;4998163;28;20454;-82
2023/11/29 02:13:54;;;;;;;8.60;7.50;;;9.50;57.30;;;;;;4999519;28;20461;-82
2023/11/29 02:16:22;;;;;;;7.53;6.37;;;9.60;57.60;;;;;;4994161;28;20453;-81
2023/11/29 02:18:50;;;;;;;7.70;6.80;;;9.70;58.20;;;;;;4997293;28;20456;-81
2023/11/29 02:21:23;;;;;;;7.03;6.33;;;9.70;57.50;;;;;;4998025;28;20533;-80
2023/11/29 02:23:55;;;;;;;7.07;6.30;;;9.70;57.50;;;;;;4997352;28;20509;-81
2023/11/29 02:26:25;;;;;;;7.20;6.10;;;9.70;57.50;;;;;;4998239;28;20448;-82
2023/11/29 02:28:53;;;;;;;6.13;5.57;;;9.80;57.40;;;;;;4998903;28;20441;-81
2023/11/29 02:31:37;;;;;;;6.70;6.10;;;9.70;57.90;;;;;;5093378;27;20595;-83
2023/11/29 02:34:11;;;;;;;5.70;5.30;;;9.90;57.30;;;;;;5073019;28;20469;-83
2023/11/29 02:36:39;;;;;;;7.07;6.07;;;9.90;57.50;;;;;;5050834;28;20492;-82
2023/11/29 02:39:07;;;;;;;6.47;5.87;;;9.90;57.30;;;;;;5055337;28;20442;-83
2023/11/29 02:41:37;;;;;;;5.40;4.90;;;9.90;57.20;;;;;;5054164;28;20529;-85
2023/11/29 02:44:05;;;;;;;5.10;4.70;;;9.90;57.00;;;;;;5049527;28;20530;-85
2023/11/29 02:46:39;;;;;;;5.67;5.17;;;9.90;57.00;;;;;;5050192;28;20443;-85
2023/11/29 02:49:08;;;;;;;6.23;5.63;;;9.80;57.00;;;;;;5052167;28;20431;-84
2023/11/29 02:51:39;;;;;;;5.40;5.00;;;9.90;57.20;;;;;;5052260;28;20470;-84
2023/11/29 02:54:08;;;;;;;5.63;5.03;;;9.90;57.30;;;;;;5048718;28;20491;-85
2023/11/29 02:56:36;;;;;;;5.60;5.13;;;9.80;56.80;;;;;;5052941;28;20454;-85
2023/11/29 02:59:04;;;;;;;5.63;5.13;;;9.80;57.40;;;;;;5054295;28;20451;-85
2023/11/29 03:01:32;;;;;;;5.83;5.33;;;9.80;57.30;;;;;;5052212;28;20450;-84
2023/11/29 03:04:01;;;;;;;5.30;4.90;;;9.90;57.20;;;;;;5040232;28;20472;-84
2023/11/29 03:06:30;;;;;;;5.30;4.80;;;9.90;56.90;;;;;;5058985;28;20472;-84
2023/11/29 03:08:58;;;;;;;6.03;5.47;;;9.90;56.80;;;;;;5059070;28;20474;-85
2023/11/29 03:11:26;;;;;;;6.30;5.70;;;9.90;57.10;;;;;;5062118;28;20548;-84
2023/11/29 03:13:55;;;;;;;5.60;5.10;;;9.90;56.80;;;;;;5060336;28;21009;-85
2023/11/29 03:16:23;;;;;;;5.30;4.90;;;10.00;56.00;;;;;;5068159;28;20481;-84
2023/11/29 03:18:54;;;;;;;6.03;5.43;;;9.90;56.70;;;;;;5055967;28;20447;-86
2023/11/29 03:21:24;;;;;;;6.27;5.77;;;9.90;56.80;;;;;;5053562;28;20449;-86
2023/11/29 03:23:52;;;;;;;6.70;6.10;;;10.00;55.70;;;;;;5048769;28;20520;-85
2023/11/29 03:26:20;;;;;;;7.13;6.40;;;10.00;55.80;;;;;;5048266;28;20465;-85
2023/11/29 03:28:48;;;;;;;7.93;7.13;;;10.00;55.70;;;;;;5060175;28;20439;-84
2023/11/29 03:31:16;;;;;;;7.50;6.80;;;10.00;55.60;;;;;;5053362;28;20471;-84
2023/11/29 03:33:44;;;;;;;8.37;7.57;;;10.00;55.50;;;;;;5057062;28;20469;-84
2023/11/29 03:36:12;;;;;;;9.47;7.80;;;9.90;56.50;;;;;;5063560;28;20520;-84
2023/11/29 03:38:42;;;;;;;9.70;8.57;;;9.90;56.70;;;;;;5054602;28;20503;-84
2023/11/29 03:41:10;;;;;;;9.80;8.63;;;9.90;56.70;;;;;;5048494;28;20440;-83
2023/11/29 03:43:38;;;;;;;11.33;9.73;;;9.90;56.50;;;;;;5036598;28;20490;-83
2023/11/29 03:46:06;;;;;;;10.57;9.47;;;9.90;56.40;;;;;;5037204;28;20467;-83
2023/11/29 03:48:34;;;;;;;12.00;9.87;;;9.90;56.80;;;;;;5039346;28;20445;-83
2023/11/29 03:51:02;;;;;;;11.70;10.03;;;9.80;56.70;;;;;;5053007;28;20505;-86
2023/11/29 03:53:30;;;;;;;11.07;9.87;;;9.90;56.60;;;;;;5039358;28;20479;-85
2023/11/29 03:56:00;;;;;;;12.23;9.90;;;9.90;56.70;;;;;;5038968;28;20447;-84
2023/11/29 03:58:28;;;;;;;13.93;10.80;;;9.90;56.50;;;;;;5038781;28;20444;-83
2023/11/29 04:00:56;;;;;;;12.90;10.30;;;9.90;56.50;;;;;;5035220;28;20444;-85
2023/11/29 04:03:24;;;;;;;12.50;10.97;;;10.00;55.80;;;;;;5047401;28;20474;-85
2023/11/29 04:05:52;;;;;;;15.47;11.30;;;10.00;55.70;;;;;;5041732;28;20470;-85
2023/11/29 04:08:20;;;;;;;14.60;11.60;;;10.00;56.00;;;;;;5039976;28;20475;-85
2023/11/29 04:10:48;;;;;;;13.53;11.27;;;9.90;56.60;;;;;;5046388;28;20505;-85
2023/11/29 04:13:18;;;;;;;14.43;11.17;;;9.90;56.50;;;;;;5047787;28;20485;-86
2023/11/29 04:15:46;;;;;;;15.40;12.37;;;9.90;56.70;;;;;;5025984;28;20486;-85
2023/11/29 04:18:15;;;;;;;15.60;11.80;;;10.00;55.70;;;;;;5037110;28;20451;-84
2023/11/29 04:20:43;;;;;;;14.87;12.27;;;10.00;55.60;;;;;;5037538;28;20440;-87
2023/11/29 04:23:11;;;;;;;17.70;13.03;;;10.00;55.80;;;;;;5026672;28;20460;-86
2023/11/29 04:25:39;;;;;;;15.37;11.93;;;10.10;55.80;;;;;;5031624;28;20447;-86
2023/11/29 04:28:07;;;;;;;15.63;12.00;;;10.10;55.70;;;;;;5039575;28;20448;-86
2023/11/29 04:30:37;;;;;;;18.03;13.00;;;10.10;55.70;;;;;;5050193;28;20471;-85
2023/11/29 04:33:05;;;;;;;18.10;12.47;;;10.10;55.90;;;;;;5044109;28;20517;-85
2023/11/29 04:35:33;;;;;;;16.10;12.30;;;10.10;55.80;;;;;;5044625;28;20463;-84
2023/11/29 04:38:01;;;;;;;15.80;12.60;;;10.10;55.80;;;;;;5044478;28;20482;-86
2023/11/29 04:40:29;;;;;;;14.20;11.87;;;10.20;55.70;;;;;;5041553;28;20513;-85
2023/11/29 04:42:57;;;;;;;14.07;11.40;;;10.20;55.50;;;;;;5039603;28;20471;-80
2023/11/29 04:45:25;;;;;;;15.83;12.10;;;10.20;55.40;;;;;;5033459;28;20504;-78
2023/11/29 04:47:54;;;;;;;14.93;11.70;;;10.10;55.60;;;;;;5024838;28;20463;-80
2023/11/29 04:50:23;;;;;;;13.10;10.50;;;10.20;55.90;;;;;;5038782;28;20432;-80
2023/11/29 04:52:51;;;;;;;14.37;11.67;;;10.20;55.60;;;;;;5037223;28;20432;-79
2023/11/29 04:55:19;;;;;;;13.53;10.80;;;10.20;55.50;;;;;;5039866;28;20494;-80
2023/11/29 04:57:47;;;;;;;14.80;11.70;;;10.20;55.60;;;;;;5042304;28;20553;-80
2023/11/29 05:00:16;;;;;;;14.30;11.20;;;10.10;55.20;;;;;;5041243;28;20479;-80
2023/11/29 05:02:44;;;;;;;16.17;11.27;;;10.10;55.50;;;;;;5036293;28;20489;-80
2023/11/29 05:05:14;;;;;;;14.13;10.83;;;10.10;55.60;;;;;;5036328;28;20447;-81
2023/11/29 05:07:42;;;;;;;15.10;11.23;;;10.00;55.60;;;;;;5035515;28;20435;-81
2023/11/29 05:10:10;;;;;;;15.47;10.60;;;10.00;55.30;;;;;;5036291;28;20518;-80
2023/11/29 05:12:38;;;;;;;13.00;10.63;;;10.00;56.00;;;;;;5036931;28;20471;-79
2023/11/29 05:15:07;;;;;;;13.80;10.50;;;10.00;55.60;;;;;;5036261;28;20523;-79
2023/11/29 05:17:35;;;;;;;12.80;10.60;;;10.10;56.20;;;;;;5034881;28;20522;-79
2023/11/29 05:20:03;;;;;;;12.20;9.80;;;10.10;55.50;;;;;;5034833;28;20439;-79
2023/11/29 05:22:33;;;;;;;12.70;10.47;;;10.20;55.50;;;;;;5036561;28;20431;-83
2023/11/29 05:25:00;;;;;;;10.40;9.30;;;10.20;55.60;;;;;;5037732;28;20467;-85
2023/11/29 05:27:28;;;;;;;11.40;9.73;;;10.20;55.40;;;;;;5040187;28;20470;-85
2023/11/29 05:29:56;;;;;;;11.57;9.87;;;10.10;55.30;;;;;;5041677;28;20493;-84
2023/11/29 05:32:24;;;;;;;9.50;8.50;;;10.10;55.30;;;;;;5040716;28;20525;-85
2023/11/29 05:34:52;;;;;;;9.80;8.80;;;10.10;55.50;;;;;;5040715;28;20460;-84
2023/11/29 05:37:20;;;;;;;11.60;9.00;;;10.10;55.30;;;;;;5041662;28;20535;-84
2023/11/29 05:39:50;;;;;;;9.63;8.63;;;10.10;55.40;;;;;;5041751;28;20442;-83
2023/11/29 05:42:18;;;;;;;10.57;9.23;;;10.20;55.40;;;;;;5040128;28;20443;-84
2023/11/29 05:44:47;;;;;;;11.33;9.60;;;10.20;55.80;;;;;;5041787;28;20451;-85
2023/11/29 05:47:15;;;;;;;9.53;8.57;;;10.20;55.70;;;;;;5041142;28;20500;-85
2023/11/29 05:49:43;;;;;;;9.50;8.50;;;10.20;55.50;;;;;;5039860;28;20478;-85
2023/11/29 05:52:11;;;;;;;10.57;8.97;;;10.30;55.10;;;;;;5040074;28;20590;-85
2023/11/29 05:54:39;;;;;;;11.03;9.37;;;10.30;55.30;;;;;;5038904;28;20517;-85
2023/11/29 05:57:09;;;;;;;10.20;8.70;;;10.20;55.10;;;;;;5038972;28;20462;-85
2023/11/29 05:59:37;;;;;;;10.80;9.13;;;10.20;55.40;;;;;;5037897;28;20439;-85
2023/11/29 06:02:06;;;;;;;10.50;8.33;;;10.30;55.50;;;;;;5036708;28;20462;-83
2023/11/29 06:04:34;;;;;;;10.30;8.67;;;10.30;55.60;;;;;;5044132;28;20880;-85
2023/11/29 06:07:03;;;;;;;10.03;8.93;;;10.30;55.60;;;;;;5028216;28;20539;-84
2023/11/29 06:09:31;;;;;;;10.83;9.60;;;10.20;55.90;;;;;;5035348;28;20467;-85
2023/11/29 06:11:59;;;;;;;10.80;9.00;;;10.30;55.50;;;;;;5036215;28;20491;-84
2023/11/29 06:14:29;;;;;;;13.03;10.10;;;10.30;55.90;;;;;;5035637;28;20878;-84
2023/11/29 06:16:57;;;;;;;9.13;8.23;;;10.30;55.40;;;;;;5050582;28;20962;-85
2023/11/29 06:19:26;;;;;;;10.80;9.17;;;10.30;55.40;;;;;;5036612;28;20474;-83
2023/11/29 06:21:55;;;;;;;9.37;8.40;;;10.30;55.30;;;;;;5037500;28;20435;-84
2023/11/29 06:24:24;;;;;;;10.77;9.67;;;10.30;55.60;;;;;;5017586;28;20510;-84
2023/11/29 06:26:53;;;;;;;12.40;8.63;;;10.30;55.80;;;;;;5017242;28;20444;-86
2023/11/29 06:29:23;;;;;;;17.47;10.90;;;10.20;55.30;;;;;;5034208;28;20447;-86
2023/11/29 06:31:53;;;;;;;14.83;9.37;;;10.30;56.30;;;;;;5044253;28;20499;-83
2023/11/29 06:34:21;;;;;;;10.40;8.80;;;10.50;55.40;;;;;;5044442;28;20463;-85
2023/11/29 06:36:52;;;;;;;9.43;8.27;;;10.40;55.20;;;;;;5040146;28;20447;-84
2023/11/29 06:39:21;;;;;;;11.10;8.77;;;10.40;55.40;;;;;;5041779;28;20439;-83
2023/11/29 06:41:49;;;;;;;11.40;9.50;;;10.30;55.20;;;;;;5041127;28;20443;-84
2023/11/29 06:44:23;;;;;;;9.97;8.50;;;10.30;55.80;;;;;;5035072;28;20451;-84
2023/11/29 06:46:55;;;;;;;11.23;9.23;;;10.40;55.50;;;;;;5038813;28;20441;-84
2023/11/29 06:49:25;;;;;;;9.90;8.70;;;10.40;55.50;;;;;;5040025;28;20447;-84
2023/11/29 06:51:53;;;;;;;9.03;8.13;;;10.50;55.80;;;;;;5045893;28;20544;-84
2023/11/29 06:54:21;;;;;;;10.20;8.60;;;10.50;55.30;;;;;;5050234;28;20524;-85
2023/11/29 06:56:50;;;;;;;9.53;8.53;;;10.50;54.90;;;;;;5041446;28;20439;-84
2023/11/29 06:59:18;;;;;;;10.33;9.07;;;10.50;55.10;;;;;;5041632;28;20440;-84
2023/11/29 07:01:47;;;;;;;9.07;8.17;;;10.50;55.20;;;;;;5031928;28;20471;-83
2023/11/29 07:04:16;;;;;;;11.40;9.50;;;10.50;55.00;;;;;;5035841;28;20534;-84
2023/11/29 07:06:44;;;;;;;9.30;8.40;;;10.50;54.60;;;;;;5035367;28;20478;-83
2023/11/29 07:09:16;;;;;;;10.60;8.80;;;10.50;55.10;;;;;;5040556;28;20435;-83
2023/11/29 07:11:44;;;;;;;11.03;8.50;;;10.50;55.30;;;;;;5035911;28;20432;-85
2023/11/29 07:14:12;;;;;;;10.20;8.80;;;10.40;55.40;;;;;;5032299;28;20471;-85
2023/11/29 07:16:40;;;;;;;9.57;8.57;;;10.50;56.00;;;;;;5038286;28;20511;-84
2023/11/29 07:19:08;;;;;;;10.30;8.70;;;10.60;55.20;;;;;;5045569;28;20475;-84
2023/11/29 07:21:38;;;;;;;10.73;9.37;;;10.60;55.40;;;;;;5039132;28;20485;-85
2023/11/29 07:24:06;;;;;;;12.17;10.20;;;10.60;55.30;;;;;;5038317;28;20463;-82
2023/11/29 07:26:34;;;;;;;13.60;9.93;;;10.50;55.30;;;;;;5039226;28;20448;-83
2023/11/29 07:29:03;;;;;;;12.63;9.83;;;10.60;55.30;;;;;;5038611;28;20451;-81
2023/11/29 07:31:31;;;;;;;11.87;10.03;;;10.50;55.60;;;;;;5039518;28;20482;-84
2023/11/29 07:34:00;;;;;;;11.57;9.63;;;10.50;55.30;;;;;;5024414;28;20502;-83
2023/11/29 07:36:28;;;;;;;11.50;10.00;;;10.50;55.20;;;;;;5039593;28;20451;-82
2023/11/29 07:39:05;;;;;;;13.63;11.00;;;10.50;55.30;;;;;;5039286;28;20457;-82
2023/11/29 07:41:33;;;;;;;13.80;10.20;;;10.50;55.10;;;;;;5054301;28;20477;-82
2023/11/29 07:44:01;;;;;;;12.47;10.40;;;10.40;55.50;;;;;;5054145;28;20451;-84
2023/11/29 07:46:29;;;;;;;11.80;9.90;;;10.40;55.50;;;;;;5051971;28;20435;-83
2023/11/29 07:48:57;;;;;;;13.83;10.97;;;10.30;55.60;;;;;;5041302;28;20438;-82
2023/11/29 07:51:29;;;;;;;12.07;10.30;;;10.30;55.90;;;;;;5043042;28;20510;-83
2023/11/29 07:53:57;;;;;;;16.80;11.53;;;10.30;56.20;;;;;;5039680;28;20513;-83
2023/11/29 07:56:27;;;;;;;13.13;11.20;;;10.30;56.10;;;;;;5041483;28;20428;-82
2023/11/29 07:58:55;;;;;;;12.87;10.40;;;10.30;55.90;;;;;;5046432;28;20506;-84
2023/11/29 08:01:24;;;;;;;12.80;10.93;;;10.30;56.60;;;;;;5048259;28;20449;-82
2023/11/29 08:03:52;;;;;;;12.20;10.10;;;10.20;56.00;;;;;;5047621;28;20521;-83
2023/11/29 08:06:21;;;;;;;13.07;9.77;;;10.20;56.30;;;;;;5050921;28;20430;-84
2023/11/29 08:08:49;;;;;;;11.97;10.27;;;10.20;56.20;;;;;;5051199;28;20475;-83
2023/11/29 08:11:17;;;;;;;12.23;9.97;;;10.30;56.70;;;;;;5045111;28;20440;-82
2023/11/29 08:13:47;;;;;;;14.90;11.40;;;10.20;56.10;;;;;;5038639;28;20479;-84
2023/11/29 08:16:15;;;;;;;12.80;11.03;;;10.30;56.40;;;;;;5046661;28;20503;-83
2023/11/29 08:18:45;;;;;;;18.80;11.03;;;10.30;56.60;;;;;;5038532;28;20498;-83
2023/11/29 08:21:12;;;;;;;12.63;10.43;;;10.20;56.60;;;;;;5046407;28;20439;-83
2023/11/29 08:23:41;;;;;;;14.93;10.93;;;10.20;56.30;;;;;;5036953;28;20451;-83
2023/11/29 08:26:08;;;;;;;12.27;10.50;;;10.20;56.50;;;;;;5043949;28;20431;-82
2023/11/29 08:28:37;;;;;;;12.30;10.67;;;10.20;56.50;;;;;;5036795;28;20479;-82
2023/11/29 08:31:06;;;;;;;14.50;10.67;;;10.10;56.40;;;;;;5037127;28;20482;-83
2023/11/29 08:33:36;;;;;;;19.57;11.60;;;10.20;56.60;;;;;;5052894;28;20565;-83
2023/11/29 08:36:05;;;;;;;20.03;14.47;;;10.20;56.60;;;;;;5050773;28;20506;-83
2023/11/29 08:38:34;;;;;;;18.83;13.73;;;10.30;57.00;;;;;;5057079;28;20453;-83
2023/11/29 08:41:02;;;;;;;23.23;15.23;;;10.50;57.00;;;;;;5036851;28;20448;-83
2023/11/29 08:43:30;;;;;;;26.70;16.50;;;10.70;56.50;;;;;;5036433;28;20455;-82
2023/11/29 08:45:58;;;;;;;26.10;17.20;;;10.80;56.80;;;;;;5037528;28;20448;-82
2023/11/29 08:48:28;;;;;;;25.00;16.57;;;10.90;56.20;;;;;;5037444;28;20550;-84
2023/11/29 08:50:56;;;;;;;24.67;16.00;;;10.90;55.80;;;;;;5037124;28;20454;-81
2023/11/29 08:53:25;;;;;;;24.97;15.57;;;11.00;56.40;;;;;;5042900;28;20581;-83
2023/11/29 08:56:14;;;;;;;22.87;14.70;;;11.10;55.80;;;;;;5050003;28;20443;-83
2023/11/29 08:58:42;;;;;;;24.93;14.53;;;11.10;55.90;;;;;;5050183;28;20472;-83
2023/11/29 09:01:12;;;;;;;29.97;14.77;;;11.20;55.90;;;;;;5067869;22;21009;-76
2023/11/29 09:03:41;;;;;;;20.63;13.17;;;11.30;55.80;;;;;;5057508;28;20427;-75
2023/11/29 09:06:09;;;;;;;22.53;13.23;;;11.40;55.60;;;;;;5051010;28;20427;-75
2023/11/29 09:08:38;;;;;;;20.13;13.23;;;11.40;55.70;;;;;;5043249;28;20534;-77
2023/11/29 09:11:06;;;;;;;14.67;10.73;;;11.40;55.80;;;;;;5053208;28;20444;-77
2023/11/29 09:13:35;;;;;;;16.50;10.80;;;11.50;55.50;;;;;;5052714;28;20481;-77
2023/11/29 09:16:05;;;;;;;15.70;9.97;;;11.50;55.40;;;;;;5053020;28;20454;-80
2023/11/29 09:18:36;;;;;;;14.30;9.40;;;11.50;55.10;;;;;;5053770;28;20557;-79
2023/11/29 09:21:06;;;;;;;13.33;8.80;;;11.50;55.40;;;;;;5051963;28;20447;-79
2023/11/29 09:23:35;;;;;;;12.17;8.53;;;11.50;55.40;;;;;;5052792;28;20438;-77
2023/11/29 09:26:05;;;;;;;11.50;7.53;;;11.60;55.30;;;;;;5052645;28;20457;-77
2023/11/29 09:28:33;;;;;;;14.50;8.17;;;11.60;55.10;;;;;;5053213;28;20531;-77
2023/11/29 09:31:03;;;;;;;11.50;7.50;;;11.60;54.80;;;;;;5052636;28;20488;-79
2023/11/29 09:33:32;;;;;;;9.60;6.93;;;11.70;55.10;;;;;;5052993;28;20482;-77
2023/11/29 09:36:01;;;;;;;11.83;7.80;;;11.70;54.80;;;;;;5054833;28;20492;-76
2023/11/29 09:38:30;;;;;;;9.97;7.60;;;11.70;54.50;;;;;;5058815;28;20447;-78
2023/11/29 09:40:58;;;;;;;10.70;7.57;;;11.70;54.70;;;;;;5061552;28;20491;-77
2023/11/29 09:43:27;;;;;;;12.77;7.90;;;11.70;54.40;;;;;;5071366;28;20434;-78
2023/11/29 09:45:55;;;;;;;7.60;6.40;;;11.70;54.70;;;;;;5054869;28;20522;-78
2023/11/29 09:48:24;;;;;;;9.07;6.53;;;11.70;54.60;;;;;;5058421;28;20447;-77
2023/11/29 09:50:52;;;;;;;10.03;6.70;;;11.70;54.40;;;;;;5051664;28;20466;-76
2023/11/29 09:53:23;;;;;;;10.43;7.53;;;11.70;54.60;;;;;;5051532;28;20526;-77
2023/11/29 09:55:53;;;;;;;9.33;6.90;;;11.70;54.10;;;;;;5061613;28;20536;-78
2023/11/29 09:58:22;;;;;;;8.07;5.77;;;11.70;54.20;;;;;;5067947;28;20446;-78
2023/11/29 10:00:50;;;;;;;8.93;5.83;;;11.60;54.90;;;;;;5059502;28;20476;-77
2023/11/29 10:03:20;;;;;;;7.47;5.13;;;11.70;54.40;;;;;;5060326;28;20551;-78
2023/11/29 10:05:50;;;;;;;6.47;5.33;;;11.60;54.20;;;;;;5053182;28;20443;-78
2023/11/29 10:08:19;;;;;;;8.50;6.27;;;11.70;54.20;;;;;;5071380;28;20442;-79
2023/11/29 10:10:47;;;;;;;7.00;5.73;;;11.70;53.50;;;;;;5052332;28;20470;-78
2023/11/29 10:13:17;;;;;;;8.50;5.50;;;11.60;53.70;;;;;;5051577;28;20471;-78
2023/11/29 10:15:47;;;;;;;7.03;5.90;;;11.60;53.70;;;;;;5054089;28;20500;-78
2023/11/29 10:18:15;;;;;;;8.30;6.07;;;11.60;54.00;;;;;;5044550;28;20454;-75
2023/11/29 10:20:46;;;;;;;7.20;5.63;;;11.70;54.00;;;;;;5047938;28;20490;-78
2023/11/29 10:23:32;;;;;;;6.13;4.77;;;11.70;53.60;;;;;;5046651;28;20469;-78
2023/11/29 10:26:01;;;;;;;6.70;4.47;;;11.70;54.00;;;;;;5052728;28;20514;-78
2023/11/29 10:28:31;;;;;;;6.83;5.17;;;11.80;53.60;;;;;;5058860;28;20507;-77
2023/11/29 10:30:59;;;;;;;5.87;4.80;;;11.70;53.40;;;;;;5068674;28;20435;-78
2023/11/29 10:33:28;;;;;;;6.60;5.17;;;11.70;53.50;;;;;;5065628;28;20450;-77
2023/11/29 10:35:57;;;;;;;6.10;4.70;;;11.70;53.90;;;;;;5062697;28;20446;-78
2023/11/29 10:38:26;;;;;;;5.97;5.30;;;11.80;53.60;;;;;;5052366;28;20455;-76
2023/11/29 10:40:54;;;;;;;5.87;5.10;;;11.80;53.70;;;;;;5051513;28;20442;-78
2023/11/29 10:43:24;;;;;;;6.37;4.63;;;11.80;53.00;;;;;;5051304;28;20446;-75
2023/11/29 10:45:59;;;;;;;6.00;5.13;;;11.70;53.50;;;;;;5052268;28;20442;-77
2023/11/29 10:48:29;;;;;;;5.20;4.70;;;11.80;53.40;;;;;;5052701;28;20457;-76
2023/11/29 10:50:57;;;;;;;7.07;5.40;;;11.80;53.50;;;;;;5053767;28;20446;-76
2023/11/29 10:53:26;;;;;;;9.13;5.80;;;11.80;52.90;;;;;;5056232;28;20457;-75
2023/11/29 10:55:54;;;;;;;4.93;4.27;;;11.80;53.10;;;;;;5056732;28;20477;-76
2023/11/29 10:58:23;;;;;;;5.20;4.70;;;11.80;53.10;;;;;;5056558;28;20480;-77
2023/11/29 11:00:53;;;;;;;6.60;5.00;;;11.80;53.00;;;;;;5056180;28;20450;-77
2023/11/29 11:03:42;;;;;;;8.13;5.37;;;11.80;53.10;;;;;;5040857;28;20459;-76
2023/11/29 11:06:40;;;;;;;7.07;4.63;;;11.80;52.90;;;;;;5056478;28;20442;-77
2023/11/29 11:09:36;;;;;;;5.13;4.63;;;11.70;52.70;;;;;;5056343;28;20441;-81
2023/11/29 11:12:06;;;;;;;12.03;5.07;;;11.70;53.00;;;;;;5055774;28;20470;-77
2023/11/29 11:14:42;;;;;;;6.43;5.30;;;11.80;53.20;;;;;;5056836;28;20561;-79
2023/11/29 11:17:10;;;;;;;5.40;4.90;;;11.80;53.00;;;;;;5057038;28;20449;-77
2023/11/29 11:19:42;;;;;;;6.47;4.87;;;11.80;52.90;;;;;;5056218;28;20470;-76
2023/11/29 11:22:11;;;;;;;6.90;5.23;;;11.80;53.00;;;;;;5056184;28;20489;-79
2023/11/29 11:25:04;;;;;;;7.20;5.60;;;11.80;53.20;;;;;;5056457;28;20422;-78
2023/11/29 11:27:34;;;;;;;5.60;4.67;;;12.00;53.20;;;;;;5056430;28;20539;-78
2023/11/29 11:30:26;;;;;;;5.70;5.10;;;12.10;52.70;;;;;;5057919;28;20442;-78
2023/11/29 11:32:55;;;;;;;6.37;5.57;;;12.30;52.50;;;;;;5057568;28;20466;-76
2023/11/29 11:35:37;;;;;;;5.57;4.47;;;12.60;53.10;;;;;;5058672;28;20470;-78
2023/11/29 11:38:07;;;;;;;8.33;4.90;;;13.00;52.70;;;;;;5058353;28;20444;-78
2023/11/29 11:40:38;;;;;;;10.20;4.83;;;13.40;52.30;;;;;;5057909;28;20451;-78
2023/11/29 11:43:06;;;;;;;7.00;4.87;;;13.60;52.20;;;;;;5057782;28;20470;-78
2023/11/29 11:45:36;;;;;;;7.00;4.77;;;13.80;51.60;;;;;;5059030;28;20442;-78
2023/11/29 11:48:05;;;;;;;4.87;4.30;;;13.70;50.60;;;;;;5056404;28;20491;-78
2023/11/29 11:50:35;;;;;;;5.23;4.20;;;13.70;50.70;;;;;;5057915;28;20446;-76
2023/11/29 11:53:06;;;;;;;8.93;6.23;;;13.60;52.00;;;;;;5055575;28;20476;-79
2023/11/29 11:55:39;;;;;;;5.10;4.60;;;12.80;50.00;;;;;;5055965;28;20461;-79
2023/11/29 11:58:09;;;;;;;5.93;4.60;;;12.30;50.50;;;;;;5055480;28;20453;-79
2023/11/29 12:00:41;;;;;;;7.07;4.80;;;11.90;49.70;;;;;;5056285;28;20453;-81
2023/11/29 12:03:09;;;;;;;9.00;5.30;;;11.70;47.70;;;;;;5056010;28;20478;-77
2023/11/29 12:05:39;;;;;;;4.50;4.10;;;11.30;48.60;;;;;;5055287;28;20449;-77
2023/11/29 12:08:09;;;;;;;6.00;4.57;;;11.20;51.10;;;;;;5055642;28;20447;-79
2023/11/29 12:10:38;;;;;;;7.30;4.40;;;11.10;49.90;;;;;;5057259;28;20477;-80
2023/11/29 12:13:06;;;;;;;7.40;4.60;;;11.20;51.60;;;;;;5057506;28;20469;-75
2023/11/29 12:15:34;;;;;;;5.40;4.40;;;11.60;51.70;;;;;;5062328;28;20471;-76
2023/11/29 12:18:12;;;;;;;5.57;4.20;;;12.20;50.60;;;;;;5064684;28;20442;-76
2023/11/29 12:20:42;;;;;;;4.57;4.17;;;12.70;49.70;;;;;;5059463;28;20450;-76
2023/11/29 12:23:13;;;;;;;4.70;3.50;;;13.00;49.00;;;;;;5056728;28;21047;-75
2023/11/29 12:25:41;;;;;;;3.80;3.30;;;13.20;48.60;;;;;;5057015;28;20443;-76
2023/11/29 12:28:11;;;;;;;5.03;3.50;;;13.30;48.30;;;;;;5056447;28;20457;-75
2023/11/29 12:30:44;;;;;;;3.60;3.30;;;13.40;48.30;;;;;;5055616;28;20446;-75
2023/11/29 12:33:14;;;;;;;4.17;3.27;;;13.60;48.40;;;;;;5055364;28;20503;-75
2023/11/29 12:35:43;;;;;;;6.57;3.50;;;13.80;48.60;;;;;;5055248;28;20474;-75
2023/11/29 12:38:14;;;;;;;4.60;3.20;;;14.10;48.70;;;;;;5055354;28;20454;-74
2023/11/29 12:40:42;;;;;;;4.33;2.97;;;14.40;48.60;;;;;;5054944;28;20557;-75
2023/11/29 12:43:09;;;;;;;4.30;2.90;;;14.70;48.90;;;;;;5054247;28;20521;-74
2023/11/29 12:45:38;;;;;;;2.60;2.40;;;15.10;48.90;;;;;;5054728;28;20462;-74
2023/11/29 12:48:06;;;;;;;2.73;2.50;;;15.50;48.40;;;;;;5054483;28;20438;-74
2023/11/29 12:50:34;;;;;;;3.23;2.93;;;15.60;48.10;;;;;;5054444;28;20443;-75